createdAt,value
2022-11-03T00:02:25.194Z,23.80
2022-11-03T00:05:51.089Z,22.10
2022-11-03T00:09:03.867Z,20.60
2022-11-03T00:12:12.110Z,21.50
2022-11-03T00:15:20.170Z,24.40
2022-11-03T00:18:28.107Z,23.40
2022-11-03T00:21:36.712Z,22.30
2022-11-03T00:24:44.420Z,21.90
2022-11-03T00:28:00.371Z,23.50
2022-11-03T00:31:13.375Z,23.70
2022-11-03T00:34:21.221Z,21.20
2022-11-03T00:37:29.164Z,21.50
2022-11-03T00:40:37.075Z,24.50
2022-11-03T00:43:45.375Z,24.40
2022-11-03T00:46:53.292Z,22.40
2022-11-03T00:50:01.055Z,22.30
2022-11-03T00:53:09.221Z,24.70
2022-11-03T00:56:19.752Z,22.60
2022-11-03T01:00:09.158Z,23.50
2022-11-03T01:03:17.352Z,23.10
2022-11-03T01:06:42.499Z,25.20
2022-11-03T01:09:50.509Z,23.20
2022-11-03T01:12:58.370Z,22.50
2022-11-03T01:16:06.966Z,22.80
2022-11-03T01:19:14.888Z,22.10
2022-11-03T01:22:23.857Z,22.60
2022-11-03T01:25:32.939Z,25.00
2022-11-03T01:28:42.115Z,24.00
2022-11-03T01:31:51.847Z,23.70
2022-11-03T01:34:59.655Z,24.70
2022-11-03T01:38:08.270Z,25.20
2022-11-03T01:41:20.886Z,21.50
2022-11-03T01:44:38.954Z,24.10
2022-11-03T01:47:48.985Z,25.90
2022-11-03T01:50:57.334Z,25.90
2022-11-03T01:54:13.648Z,23.70
2022-11-03T01:57:30.605Z,25.70
2022-11-03T02:00:39.273Z,24.90
2022-11-03T02:06:59.273Z,27.30
2022-11-03T02:10:10.588Z,27.00
2022-11-03T02:13:24.835Z,26.10
2022-11-03T02:16:35.780Z,25.80
2022-11-03T02:19:50.024Z,24.20
2022-11-03T02:23:22.645Z,25.90
2022-11-03T02:26:31.853Z,24.70
2022-11-03T02:29:39.973Z,25.30
2022-11-03T02:33:03.905Z,26.50
2022-11-03T02:36:21.475Z,24.80
2022-11-03T02:39:36.054Z,22.00
2022-11-03T02:42:49.138Z,27.00
2022-11-03T02:45:58.645Z,25.50
2022-11-03T02:49:06.825Z,20.10
2022-11-03T02:52:45.898Z,19.10
2022-11-03T02:56:04.928Z,23.40
2022-11-03T02:59:17.314Z,21.40
2022-11-03T03:02:35.854Z,21.40
2022-11-03T03:05:49.352Z,21.30
2022-11-03T03:09:03.518Z,19.20
2022-11-03T03:12:15.276Z,22.70
2022-11-03T03:15:31.453Z,19.70
2022-11-03T03:18:52.980Z,20.20
2022-11-03T03:22:12.104Z,21.80
2022-11-03T03:25:26.817Z,21.90
2022-11-03T03:28:42.073Z,22.20
2022-11-03T03:31:56.679Z,21.60
2022-11-03T03:35:07.755Z,24.90
2022-11-03T03:38:22.112Z,42.90
2022-11-03T03:41:33.252Z,25.80
2022-11-03T03:44:45.281Z,25.90
2022-11-03T03:47:57.670Z,28.70
2022-11-03T03:51:08.989Z,62.60
2022-11-03T03:54:16.714Z,109.70
2022-11-03T03:57:28.486Z,93.20
2022-11-03T04:00:40.330Z,122.00
2022-11-03T04:03:48.057Z,104.10
2022-11-03T04:07:09.819Z,49.60
2022-11-03T04:10:18.207Z,89.70
2022-11-03T04:13:43.603Z,29.80
2022-11-03T04:17:09.178Z,23.00
2022-11-03T04:20:36.527Z,68.40
2022-11-03T04:23:44.830Z,87.80
2022-11-03T04:26:53.425Z,65.90
2022-11-03T04:30:08.944Z,56.70
2022-11-03T04:33:19.997Z,28.90
2022-11-03T04:36:28.934Z,40.60
2022-11-03T04:39:37.596Z,20.80
2022-11-03T04:42:46.561Z,23.10
2022-11-03T04:45:54.379Z,20.60
2022-11-03T04:49:06.933Z,22.10
2022-11-03T04:52:21.247Z,22.30
2022-11-03T04:55:29.564Z,22.50
2022-11-03T04:58:39.447Z,18.70
2022-11-03T05:04:55.701Z,22.00
2022-11-03T05:08:04.210Z,23.90
2022-11-03T05:11:26.145Z,23.10
2022-11-03T05:14:36.049Z,18.80
2022-11-03T05:20:57.617Z,12.60
2022-11-03T05:27:29.367Z,10.10
2022-11-03T05:30:37.304Z,9.30
2022-11-03T05:33:47.464Z,10.10
2022-11-03T05:36:55.463Z,9.50
2022-11-03T05:40:16.085Z,11.50
2022-11-03T05:43:24.498Z,12.20
2022-11-03T05:46:36.376Z,13.20
2022-11-03T05:49:44.843Z,9.60
2022-11-03T05:52:56.225Z,11.50
2022-11-03T05:56:08.372Z,10.50
2022-11-03T05:59:25.013Z,10.90
2022-11-03T06:02:40.843Z,10.80
2022-11-03T06:05:49.953Z,7.70
2022-11-03T06:08:59.725Z,8.50
2022-11-03T06:12:16.773Z,7.30
2022-11-03T06:15:36.581Z,7.40
2022-11-03T06:21:52.841Z,6.40
2022-11-03T06:25:13.967Z,6.30
2022-11-03T06:28:32.085Z,7.80
2022-11-03T06:31:41.128Z,6.20
2022-11-03T06:34:51.352Z,5.70
2022-11-03T06:38:00.888Z,6.10
2022-11-03T06:41:19.439Z,7.90
2022-11-03T06:44:30.557Z,6.40
2022-11-03T06:47:43.535Z,6.30
2022-11-03T06:50:51.468Z,6.60
2022-11-03T06:54:02.540Z,8.20
2022-11-03T06:57:18.144Z,8.80
2022-11-03T07:00:38.553Z,7.10
2022-11-03T07:03:50.815Z,9.30
2022-11-03T07:07:04.550Z,6.70
2022-11-03T07:10:15.325Z,7.40
2022-11-03T07:13:28.686Z,12.10
2022-11-03T07:16:42.201Z,9.70
2022-11-03T07:19:50.521Z,10.60
2022-11-03T07:23:03.788Z,7.50
2022-11-03T07:26:14.570Z,7.90
2022-11-03T07:29:28.693Z,8.80
2022-11-03T07:32:38.903Z,8.00
2022-11-03T07:36:19.160Z,7.60
2022-11-03T07:42:30.106Z,6.90
2022-11-03T07:45:44.311Z,8.80
2022-11-03T07:48:55.553Z,11.00
2022-11-03T07:52:10.263Z,8.70
2022-11-03T07:55:21.726Z,10.50
2022-11-03T07:58:40.347Z,14.20
2022-11-03T08:01:52.462Z,14.10
2022-11-03T08:05:00.375Z,16.20
2022-11-03T08:08:08.893Z,18.50
2022-11-03T08:11:17.189Z,15.70
2022-11-03T08:14:25.208Z,21.90
2022-11-03T08:17:32.913Z,17.40
2022-11-03T08:20:42.775Z,20.30
2022-11-03T08:26:56.865Z,23.10
2022-11-03T08:30:05.170Z,22.10
2022-11-03T08:33:13.230Z,23.70
2022-11-03T08:36:21.844Z,13.20
2022-11-03T08:39:31.833Z,27.30
2022-11-03T08:42:39.785Z,29.60
2022-11-03T08:45:53.558Z,24.80
2022-11-03T08:49:01.518Z,25.30
2022-11-03T08:52:10.005Z,24.80
2022-11-03T08:55:18.474Z,25.30
2022-11-03T08:58:42.477Z,32.90
2022-11-03T09:01:50.972Z,27.90
2022-11-03T09:04:58.919Z,27.30
2022-11-03T09:11:36.166Z,25.20
2022-11-03T09:14:45.077Z,26.00
2022-11-03T09:17:53.420Z,26.30
2022-11-03T09:21:01.507Z,29.00
2022-11-03T09:24:12.370Z,24.50
2022-11-03T09:27:20.249Z,30.50
2022-11-03T09:30:29.344Z,31.00
2022-11-03T09:33:37.325Z,29.20
2022-11-03T09:36:52.158Z,28.20
2022-11-03T09:40:01.212Z,28.50
2022-11-03T09:43:10.062Z,31.40
2022-11-03T09:46:19.452Z,30.90
2022-11-03T09:49:27.624Z,24.70
2022-11-03T09:52:38.065Z,22.40
2022-11-03T09:55:46.256Z,24.80
2022-11-03T09:58:54.951Z,29.70
2022-11-03T10:02:03.345Z,29.40
2022-11-03T10:05:17.210Z,30.60
2022-11-03T10:08:29.643Z,27.50
2022-11-03T10:11:38.811Z,25.10
2022-11-03T10:14:49.290Z,24.50
2022-11-03T10:17:58.507Z,25.80
2022-11-03T10:21:14.879Z,34.30
2022-11-03T10:24:23.505Z,30.60
2022-11-03T10:27:31.357Z,28.70
2022-11-03T10:31:11.246Z,31.40
2022-11-03T10:34:36.668Z,19.40
2022-11-03T10:37:45.212Z,15.20
2022-11-03T10:40:53.111Z,30.60
2022-11-03T10:44:21.609Z,27.00
2022-11-03T10:47:38.039Z,31.50
2022-11-03T10:50:46.513Z,26.10
2022-11-03T10:53:54.243Z,24.60
2022-11-03T10:57:02.978Z,20.90
2022-11-03T11:00:17.427Z,22.00
2022-11-03T11:03:25.333Z,17.40
2022-11-03T11:06:34.979Z,21.80
2022-11-03T11:09:45.964Z,32.70
2022-11-03T11:13:31.139Z,28.90
2022-11-03T11:16:57.350Z,25.90
2022-11-03T11:20:45.949Z,32.50
2022-11-03T11:28:20.451Z,27.00
2022-11-03T11:31:36.996Z,27.80
2022-11-03T11:34:55.542Z,28.40
2022-11-03T11:39:01.593Z,30.10
2022-11-03T11:42:17.702Z,29.10
2022-11-03T11:46:13.855Z,32.10
2022-11-03T11:49:35.703Z,30.20
2022-11-03T11:52:51.541Z,29.10
2022-11-03T11:56:03.907Z,32.30
2022-11-03T11:59:35.620Z,29.00
2022-11-03T12:02:49.898Z,24.40
2022-11-03T12:06:07.321Z,27.00
2022-11-03T12:09:23.143Z,29.30
2022-11-03T12:12:39.602Z,22.20
2022-11-03T12:19:46.125Z,30.00
2022-11-03T12:22:54.004Z,27.90
2022-11-03T12:26:02.757Z,33.00
2022-11-03T12:29:11.250Z,34.00
2022-11-03T12:32:32.789Z,33.90
2022-11-03T12:35:42.150Z,30.70
2022-11-03T12:38:50.670Z,31.80
2022-11-03T12:41:58.836Z,36.00
2022-11-03T12:45:08.592Z,34.20
2022-11-03T12:48:16.392Z,33.70
2022-11-03T12:51:26.078Z,35.10
2022-11-03T12:54:34.201Z,34.30
2022-11-03T12:57:42.518Z,33.30
2022-11-03T13:00:54.933Z,35.10
2022-11-03T13:04:06.083Z,35.60
2022-11-03T13:10:20.794Z,27.90
2022-11-03T13:13:29.405Z,34.70
2022-11-03T13:16:37.590Z,38.30
2022-11-03T13:19:45.834Z,34.50
2022-11-03T13:22:53.784Z,23.40
2022-11-03T13:26:01.611Z,38.40
2022-11-03T13:29:09.705Z,34.20
2022-11-03T13:32:17.405Z,32.00
2022-11-03T13:35:25.160Z,35.50
2022-11-03T13:38:32.856Z,33.90
2022-11-03T13:41:41.242Z,24.10
2022-11-03T13:44:48.884Z,40.70
2022-11-03T13:48:48.432Z,39.40
2022-11-03T13:51:25.404Z,41.70
2022-11-03T14:01:29.991Z,26.40
2022-11-03T14:10:54.058Z,40.50
2022-11-03T14:14:01.767Z,33.20
2022-11-03T14:17:12.704Z,36.90
2022-11-03T14:20:20.737Z,35.60
2022-11-03T14:23:28.729Z,39.40
2022-11-03T14:26:44.194Z,43.50
2022-11-03T14:29:53.829Z,42.30
2022-11-03T14:33:01.743Z,43.30
2022-11-03T14:36:12.078Z,23.60
2022-11-03T14:39:19.906Z,23.90
2022-11-03T14:42:27.719Z,38.00
2022-11-03T14:45:38.326Z,36.60
2022-11-03T14:48:49.257Z,23.30
2022-11-03T14:51:58.208Z,28.70
2022-11-03T14:55:07.254Z,23.90
2022-11-03T14:58:15.937Z,40.30
2022-11-03T15:01:24.204Z,40.60
2022-11-03T15:04:32.345Z,38.60
2022-11-03T15:07:40.090Z,37.30
2022-11-03T15:10:48.207Z,24.60
2022-11-03T15:13:56.431Z,26.10
2022-11-03T15:17:05.004Z,31.80
2022-11-03T15:20:14.876Z,25.50
2022-11-03T15:26:50.992Z,20.10
2022-11-03T15:30:01.152Z,24.20
2022-11-03T15:33:09.083Z,30.50
2022-11-03T15:36:16.984Z,27.50
2022-11-03T15:39:24.828Z,29.90
2022-11-03T15:42:33.056Z,28.60
2022-11-03T15:45:41.663Z,26.50
2022-11-03T15:48:49.667Z,30.20
2022-11-03T15:51:57.506Z,29.00
2022-11-03T15:55:06.086Z,24.80
2022-11-03T15:58:14.075Z,25.30
2022-11-03T16:01:22.537Z,27.70
2022-11-03T16:04:30.410Z,18.00
2022-11-03T16:07:38.708Z,29.50
2022-11-03T16:10:53.149Z,29.10
2022-11-03T16:14:04.407Z,22.90
2022-11-03T16:17:12.294Z,25.10
2022-11-03T16:20:21.072Z,37.90
2022-11-03T16:23:29.182Z,25.40
2022-11-03T16:26:37.348Z,33.20
2022-11-03T16:29:45.446Z,21.30
2022-11-03T16:32:53.972Z,27.70
2022-11-03T16:36:01.697Z,30.30
2022-11-03T16:39:10.808Z,27.20
2022-11-03T16:42:18.587Z,17.90
2022-11-03T16:45:33.557Z,23.50
2022-11-03T16:48:44.350Z,15.80
2022-11-03T16:51:52.257Z,18.50
2022-11-03T16:55:02.876Z,20.90
2022-11-03T16:58:10.606Z,20.00
2022-11-03T17:01:18.699Z,13.90
2022-11-03T17:04:27.291Z,25.90
2022-11-03T17:07:35.065Z,25.10
2022-11-03T17:10:42.963Z,19.70
2022-11-03T17:13:50.821Z,14.30
2022-11-03T17:16:58.980Z,25.70
2022-11-03T17:20:08.950Z,23.10
2022-11-03T17:23:16.958Z,28.10
2022-11-03T17:26:32.189Z,22.80
2022-11-03T17:29:45.364Z,21.90
2022-11-03T17:32:57.578Z,25.00
2022-11-03T17:36:06.169Z,26.50
2022-11-03T17:39:18.314Z,26.30
2022-11-03T17:42:27.815Z,25.80
2022-11-03T17:45:35.942Z,24.10
2022-11-03T17:48:44.356Z,24.50
2022-11-03T17:51:53.127Z,22.50
2022-11-03T17:55:05.752Z,26.70
2022-11-03T17:58:15.194Z,24.10
2022-11-03T18:01:27.971Z,32.60
2022-11-03T18:04:36.629Z,30.20
2022-11-03T18:07:44.392Z,33.90
2022-11-03T18:10:56.711Z,26.80
2022-11-03T18:14:05.772Z,23.40
2022-11-03T18:17:20.281Z,29.50
2022-11-03T18:20:31.375Z,20.90
2022-11-03T18:23:39.792Z,24.70
2022-11-03T18:26:47.550Z,20.50
2022-11-03T18:29:55.406Z,31.60
2022-11-03T18:33:03.339Z,30.80
2022-11-03T18:36:14.797Z,35.80
2022-11-03T18:39:27.929Z,39.10
2022-11-03T18:42:35.835Z,28.80
2022-11-03T18:45:43.790Z,38.10
2022-11-03T18:48:52.503Z,44.10
2022-11-03T18:52:03.864Z,37.10
2022-11-03T18:55:15.249Z,45.30
2022-11-03T18:58:26.688Z,33.00
2022-11-03T19:01:34.785Z,47.20
2022-11-03T19:04:43.083Z,42.80
2022-11-03T19:07:53.767Z,43.80
2022-11-03T19:11:04.075Z,46.20
2022-11-03T19:14:18.329Z,43.30
2022-11-03T19:17:27.571Z,37.90
2022-11-03T19:20:35.935Z,54.30
2022-11-03T19:23:47.796Z,53.10
2022-11-03T19:27:02.616Z,40.00
2022-11-03T19:30:15.520Z,49.30
2022-11-03T19:33:28.377Z,35.10
2022-11-03T19:36:36.295Z,41.30
2022-11-03T19:39:45.506Z,40.10
2022-11-03T19:42:53.739Z,48.20
2022-11-03T19:46:02.274Z,54.90
2022-11-03T19:49:14.631Z,48.80
2022-11-03T19:52:33.890Z,45.90
2022-11-03T19:55:45.365Z,38.20
2022-11-03T19:58:55.769Z,51.20
2022-11-03T20:02:08.419Z,53.70
2022-11-03T20:05:21.333Z,39.00
2022-11-03T20:08:35.017Z,43.70
2022-11-03T20:11:44.332Z,48.40
2022-11-03T20:14:53.871Z,41.70
2022-11-03T20:18:03.100Z,42.20
2022-11-03T20:21:22.486Z,29.10
2022-11-03T20:24:34.669Z,35.70
2022-11-03T20:27:56.766Z,46.30
2022-11-03T20:31:08.072Z,42.40
2022-11-03T20:37:36.396Z,51.00
2022-11-03T20:40:44.237Z,50.50
2022-11-03T20:43:55.222Z,48.90
2022-11-03T20:47:04.220Z,46.00
2022-11-03T20:50:14.986Z,49.70
2022-11-03T20:53:25.775Z,47.60
2022-11-03T20:56:33.863Z,41.80
2022-11-03T20:59:41.822Z,53.40
2022-11-03T21:02:51.079Z,48.60
2022-11-03T21:05:59.127Z,40.50
2022-11-03T21:09:11.643Z,43.20
2022-11-03T21:12:19.671Z,35.40
2022-11-03T21:16:10.416Z,26.80
2022-11-03T21:19:40.087Z,26.50
2022-11-03T21:22:53.333Z,29.30
2022-11-03T21:26:02.438Z,47.30
2022-11-03T21:29:10.379Z,40.40
2022-11-03T21:32:22.664Z,42.60
2022-11-03T21:35:30.436Z,33.20
2022-11-03T21:38:38.102Z,24.00
2022-11-03T21:42:04.074Z,34.80
2022-11-03T21:45:13.515Z,23.30
2022-11-03T21:48:40.131Z,35.20
2022-11-03T21:51:47.956Z,43.70
2022-11-03T21:54:55.771Z,25.40
2022-11-03T21:58:04.364Z,40.90
2022-11-03T22:01:13.243Z,32.10
2022-11-03T22:04:21.038Z,37.30
2022-11-03T22:07:33.962Z,31.80
2022-11-03T22:10:44.304Z,33.90
2022-11-03T22:13:56.047Z,29.20
2022-11-03T22:17:04.152Z,31.50
2022-11-03T22:20:30.974Z,38.80
2022-11-03T22:23:57.035Z,36.30
2022-11-03T22:27:05.942Z,37.90
2022-11-03T22:30:32.159Z,39.50
2022-11-03T22:34:00.170Z,40.10
2022-11-03T22:37:08.188Z,37.00
2022-11-03T22:40:33.834Z,27.80
2022-11-03T22:43:59.820Z,37.40
2022-11-03T22:47:08.517Z,39.20
2022-11-03T22:50:16.732Z,32.30
2022-11-03T22:53:42.812Z,34.00
2022-11-03T22:56:50.654Z,31.30
2022-11-03T22:59:58.684Z,33.40
2022-11-03T23:03:07.508Z,31.20
2022-11-03T23:06:18.941Z,33.20
2022-11-03T23:09:26.850Z,29.60
2022-11-03T23:12:35.224Z,26.30
2022-11-03T23:15:44.123Z,28.50
2022-11-03T23:19:10.223Z,28.40
2022-11-03T23:22:18.028Z,27.60
2022-11-03T23:25:26.313Z,29.90
2022-11-03T23:28:34.236Z,31.00
2022-11-03T23:31:43.730Z,30.90
2022-11-03T23:34:51.729Z,19.90
2022-11-03T23:38:02.014Z,29.20
2022-11-03T23:41:12.946Z,28.50
2022-11-03T23:44:21.418Z,26.40
2022-11-03T23:47:46.780Z,27.30
2022-11-03T23:50:55.327Z,29.60
2022-11-03T23:54:04.392Z,27.90
2022-11-03T23:57:31.875Z,17.40
